sensor_id;sensor_type;location;lat;lon;timestamp;P1;durP1;ratioP1;P2;durP2;ratioP2
9467;SDS011;4772;52.382;9.752;2023-05-16T00:02:17;11.43;;;10.33;;
9467;SDS011;4772;52.382;9.752;2023-05-16T00:04:43;12.57;;;10.60;;
9467;SDS011;4772;52.382;9.752;2023-05-16T00:07:10;15.80;;;11.07;;
9467;SDS011;4772;52.382;9.752;2023-05-16T00:09:36;12.77;;;11.47;;
9467;SDS011;4772;52.382;9.752;2023-05-16T00:12:02;13.93;;;11.50;;
9467;SDS011;4772;52.382;9.752;2023-05-16T00:14:28;13.33;;;11.90;;
9467;SDS011;4772;52.382;9.752;2023-05-16T00:16:54;12.90;;;11.53;;
9467;SDS011;4772;52.382;9.752;2023-05-16T00:19:25;16.27;;;10.70;;
9467;SDS011;4772;52.382;9.752;2023-05-16T00:21:51;12.57;;;10.67;;
9467;SDS011;4772;52.382;9.752;2023-05-16T00:24:17;12.37;;;10.90;;
9467;SDS011;4772;52.382;9.752;2023-05-16T00:26:43;15.10;;;12.30;;
9467;SDS011;4772;52.382;9.752;2023-05-16T00:29:09;16.43;;;11.93;;
9467;SDS011;4772;52.382;9.752;2023-05-16T00:31:35;13.03;;;11.70;;
9467;SDS011;4772;52.382;9.752;2023-05-16T00:34:01;15.43;;;12.57;;
9467;SDS011;4772;52.382;9.752;2023-05-16T00:36:27;14.50;;;13.20;;
9467;SDS011;4772;52.382;9.752;2023-05-16T00:38:54;14.53;;;12.87;;
9467;SDS011;4772;52.382;9.752;2023-05-16T00:41:20;13.57;;;12.27;;
9467;SDS011;4772;52.382;9.752;2023-05-16T00:43:47;13.87;;;12.23;;
9467;SDS011;4772;52.382;9.752;2023-05-16T00:46:13;12.80;;;11.43;;
9467;SDS011;4772;52.382;9.752;2023-05-16T00:48:39;12.23;;;10.93;;
9467;SDS011;4772;52.382;9.752;2023-05-16T00:51:05;12.60;;;10.90;;
9467;SDS011;4772;52.382;9.752;2023-05-16T00:53:33;11.47;;;10.37;;
9467;SDS011;4772;52.382;9.752;2023-05-16T00:55:59;10.80;;;9.70;;
9467;SDS011;4772;52.382;9.752;2023-05-16T00:58:26;9.47;;;8.50;;
9467;SDS011;4772;52.382;9.752;2023-05-16T01:00:52;8.80;;;6.47;;
9467;SDS011;4772;52.382;9.752;2023-05-16T01:03:18;7.07;;;6.23;;
9467;SDS011;4772;52.382;9.752;2023-05-16T01:05:44;7.17;;;6.30;;
9467;SDS011;4772;52.382;9.752;2023-05-16T01:08:11;6.93;;;5.00;;
9467;SDS011;4772;52.382;9.752;2023-05-16T01:13:35;5.50;;;4.30;;
9467;SDS011;4772;52.382;9.752;2023-05-16T01:16:12;5.00;;;3.77;;
9467;SDS011;4772;52.382;9.752;2023-05-16T01:21:07;7.60;;;4.30;;
9467;SDS011;4772;52.382;9.752;2023-05-16T01:26:09;5.30;;;3.97;;
9467;SDS011;4772;52.382;9.752;2023-05-16T01:28:36;5.03;;;3.87;;
9467;SDS011;4772;52.382;9.752;2023-05-16T01:31:02;7.57;;;4.63;;
9467;SDS011;4772;52.382;9.752;2023-05-16T01:33:28;9.20;;;5.30;;
9467;SDS011;4772;52.382;9.752;2023-05-16T01:35:57;7.93;;;5.20;;
9467;SDS011;4772;52.382;9.752;2023-05-16T01:38:26;8.63;;;5.57;;
9467;SDS011;4772;52.382;9.752;2023-05-16T01:40:58;7.10;;;5.90;;
9467;SDS011;4772;52.382;9.752;2023-05-16T01:43:28;9.10;;;5.90;;
9467;SDS011;4772;52.382;9.752;2023-05-16T01:45:57;9.40;;;6.57;;
9467;SDS011;4772;52.382;9.752;2023-05-16T01:48:26;8.30;;;6.57;;
9467;SDS011;4772;52.382;9.752;2023-05-16T01:50:55;8.10;;;6.73;;
9467;SDS011;4772;52.382;9.752;2023-05-16T01:53:26;11.93;;;6.90;;
9467;SDS011;4772;52.382;9.752;2023-05-16T01:55:55;11.97;;;7.10;;
9467;SDS011;4772;52.382;9.752;2023-05-16T01:58:22;9.60;;;6.57;;
9467;SDS011;4772;52.382;9.752;2023-05-16T02:00:51;9.47;;;6.13;;
9467;SDS011;4772;52.382;9.752;2023-05-16T02:03:17;7.93;;;5.70;;
9467;SDS011;4772;52.382;9.752;2023-05-16T02:05:43;11.17;;;5.20;;
9467;SDS011;4772;52.382;9.752;2023-05-16T02:08:09;6.53;;;5.53;;
9467;SDS011;4772;52.382;9.752;2023-05-16T02:10:35;15.27;;;5.70;;
9467;SDS011;4772;52.382;9.752;2023-05-16T02:13:01;6.80;;;5.57;;
9467;SDS011;4772;52.382;9.752;2023-05-16T02:15:27;7.60;;;5.13;;
9467;SDS011;4772;52.382;9.752;2023-05-16T02:17:53;9.07;;;5.20;;
9467;SDS011;4772;52.382;9.752;2023-05-16T02:20:19;8.63;;;5.47;;
9467;SDS011;4772;52.382;9.752;2023-05-16T02:22:45;8.50;;;5.10;;
9467;SDS011;4772;52.382;9.752;2023-05-16T02:25:13;7.77;;;5.00;;
9467;SDS011;4772;52.382;9.752;2023-05-16T02:27:40;7.47;;;4.90;;
9467;SDS011;4772;52.382;9.752;2023-05-16T02:30:07;6.87;;;5.00;;
9467;SDS011;4772;52.382;9.752;2023-05-16T02:32:33;6.67;;;4.60;;
9467;SDS011;4772;52.382;9.752;2023-05-16T02:35:00;8.93;;;4.93;;
9467;SDS011;4772;52.382;9.752;2023-05-16T02:37:26;5.43;;;4.93;;
9467;SDS011;4772;52.382;9.752;2023-05-16T02:39:52;6.77;;;4.93;;
9467;SDS011;4772;52.382;9.752;2023-05-16T02:42:17;6.80;;;5.00;;
9467;SDS011;4772;52.382;9.752;2023-05-16T02:44:44;11.67;;;5.80;;
9467;SDS011;4772;52.382;9.752;2023-05-16T02:47:09;7.00;;;5.10;;
9467;SDS011;4772;52.382;9.752;2023-05-16T02:49:35;9.40;;;5.17;;
9467;SDS011;4772;52.382;9.752;2023-05-16T02:52:02;18.70;;;6.60;;
9467;SDS011;4772;52.382;9.752;2023-05-16T02:54:28;8.00;;;5.53;;
9467;SDS011;4772;52.382;9.752;2023-05-16T02:56:53;10.57;;;5.70;;
9467;SDS011;4772;52.382;9.752;2023-05-16T02:59:19;9.03;;;6.07;;
9467;SDS011;4772;52.382;9.752;2023-05-16T03:01:46;8.13;;;5.83;;
9467;SDS011;4772;52.382;9.752;2023-05-16T03:04:12;7.37;;;5.83;;
9467;SDS011;4772;52.382;9.752;2023-05-16T03:06:38;9.67;;;5.60;;
9467;SDS011;4772;52.382;9.752;2023-05-16T03:09:03;10.03;;;5.50;;
9467;SDS011;4772;52.382;9.752;2023-05-16T03:11:29;8.67;;;5.63;;
9467;SDS011;4772;52.382;9.752;2023-05-16T03:13:55;7.53;;;5.23;;
9467;SDS011;4772;52.382;9.752;2023-05-16T03:16:23;6.93;;;5.20;;
9467;SDS011;4772;52.382;9.752;2023-05-16T03:18:49;8.47;;;4.63;;
9467;SDS011;4772;52.382;9.752;2023-05-16T03:21:15;9.97;;;4.97;;
9467;SDS011;4772;52.382;9.752;2023-05-16T03:23:41;8.20;;;4.53;;
9467;SDS011;4772;52.382;9.752;2023-05-16T03:26:08;12.60;;;5.03;;
9467;SDS011;4772;52.382;9.752;2023-05-16T03:28:34;11.33;;;4.17;;
9467;SDS011;4772;52.382;9.752;2023-05-16T03:30:59;11.37;;;4.30;;
9467;SDS011;4772;52.382;9.752;2023-05-16T03:33:26;12.30;;;4.30;;
9467;SDS011;4772;52.382;9.752;2023-05-16T03:35:52;9.70;;;3.47;;
9467;SDS011;4772;52.382;9.752;2023-05-16T03:38:18;7.03;;;4.00;;
9467;SDS011;4772;52.382;9.752;2023-05-16T03:40:44;7.90;;;3.77;;
9467;SDS011;4772;52.382;9.752;2023-05-16T03:43:10;6.23;;;3.37;;
9467;SDS011;4772;52.382;9.752;2023-05-16T03:45:36;11.97;;;4.10;;
9467;SDS011;4772;52.382;9.752;2023-05-16T03:48:02;7.67;;;3.77;;
9467;SDS011;4772;52.382;9.752;2023-05-16T03:50:28;8.93;;;3.63;;
9467;SDS011;4772;52.382;9.752;2023-05-16T03:52:54;9.77;;;3.57;;
9467;SDS011;4772;52.382;9.752;2023-05-16T03:55:20;7.30;;;2.93;;
9467;SDS011;4772;52.382;9.752;2023-05-16T03:57:46;8.83;;;3.27;;
9467;SDS011;4772;52.382;9.752;2023-05-16T04:00:14;9.87;;;3.37;;
9467;SDS011;4772;52.382;9.752;2023-05-16T04:02:40;11.30;;;3.20;;
9467;SDS011;4772;52.382;9.752;2023-05-16T04:05:07;8.10;;;3.30;;
9467;SDS011;4772;52.382;9.752;2023-05-16T04:07:34;10.60;;;3.43;;
9467;SDS011;4772;52.382;9.752;2023-05-16T04:10:00;7.33;;;3.20;;
9467;SDS011;4772;52.382;9.752;2023-05-16T04:12:26;12.30;;;3.30;;
9467;SDS011;4772;52.382;9.752;2023-05-16T04:14:52;6.77;;;3.47;;
9467;SDS011;4772;52.382;9.752;2023-05-16T04:17:18;8.63;;;3.57;;
9467;SDS011;4772;52.382;9.752;2023-05-16T04:19:44;9.27;;;3.23;;
9467;SDS011;4772;52.382;9.752;2023-05-16T04:22:10;9.90;;;3.47;;
9467;SDS011;4772;52.382;9.752;2023-05-16T04:24:36;11.23;;;3.70;;
9467;SDS011;4772;52.382;9.752;2023-05-16T04:27:02;8.43;;;3.60;;
9467;SDS011;4772;52.382;9.752;2023-05-16T04:29:28;10.60;;;3.40;;
9467;SDS011;4772;52.382;9.752;2023-05-16T04:31:56;10.03;;;3.50;;
9467;SDS011;4772;52.382;9.752;2023-05-16T04:34:22;16.57;;;3.80;;
9467;SDS011;4772;52.382;9.752;2023-05-16T04:36:51;10.43;;;3.67;;
9467;SDS011;4772;52.382;9.752;2023-05-16T04:39:17;11.83;;;3.50;;
9467;SDS011;4772;52.382;9.752;2023-05-16T04:41:43;15.20;;;3.23;;
9467;SDS011;4772;52.382;9.752;2023-05-16T04:44:09;10.17;;;3.67;;
9467;SDS011;4772;52.382;9.752;2023-05-16T04:46:36;13.43;;;3.40;;
9467;SDS011;4772;52.382;9.752;2023-05-16T04:49:01;10.37;;;3.50;;
9467;SDS011;4772;52.382;9.752;2023-05-16T04:51:27;13.07;;;3.13;;
9467;SDS011;4772;52.382;9.752;2023-05-16T04:53:53;14.33;;;3.47;;
9467;SDS011;4772;52.382;9.752;2023-05-16T04:56:19;14.50;;;3.50;;
9467;SDS011;4772;52.382;9.752;2023-05-16T04:58:46;13.10;;;3.43;;
9467;SDS011;4772;52.382;9.752;2023-05-16T05:01:12;11.77;;;3.20;;
9467;SDS011;4772;52.382;9.752;2023-05-16T05:03:38;13.30;;;3.10;;
9467;SDS011;4772;52.382;9.752;2023-05-16T05:06:04;9.63;;;3.33;;
9467;SDS011;4772;52.382;9.752;2023-05-16T05:08:30;17.20;;;3.73;;
9467;SDS011;4772;52.382;9.752;2023-05-16T05:10:57;12.20;;;3.40;;
9467;SDS011;4772;52.382;9.752;2023-05-16T05:13:23;11.27;;;2.87;;
9467;SDS011;4772;52.382;9.752;2023-05-16T05:15:49;18.27;;;3.50;;
9467;SDS011;4772;52.382;9.752;2023-05-16T05:18:16;16.20;;;3.40;;
9467;SDS011;4772;52.382;9.752;2023-05-16T05:20:42;9.90;;;2.90;;
9467;SDS011;4772;52.382;9.752;2023-05-16T05:23:08;14.53;;;3.10;;
9467;SDS011;4772;52.382;9.752;2023-05-16T05:25:37;10.33;;;3.07;;
9467;SDS011;4772;52.382;9.752;2023-05-16T05:28:03;14.30;;;3.20;;
9467;SDS011;4772;52.382;9.752;2023-05-16T05:30:29;14.30;;;3.30;;
9467;SDS011;4772;52.382;9.752;2023-05-16T05:32:56;17.27;;;3.60;;
9467;SDS011;4772;52.382;9.752;2023-05-16T05:35:22;14.90;;;3.73;;
9467;SDS011;4772;52.382;9.752;2023-05-16T05:37:48;11.27;;;2.70;;
9467;SDS011;4772;52.382;9.752;2023-05-16T05:40:14;13.47;;;2.67;;
9467;SDS011;4772;52.382;9.752;2023-05-16T05:42:40;14.50;;;2.93;;
9467;SDS011;4772;52.382;9.752;2023-05-16T05:45:06;15.77;;;3.13;;
9467;SDS011;4772;52.382;9.752;2023-05-16T05:47:32;12.03;;;2.50;;
9467;SDS011;4772;52.382;9.752;2023-05-16T05:49:58;10.17;;;2.80;;
9467;SDS011;4772;52.382;9.752;2023-05-16T05:52:24;12.00;;;2.83;;
9467;SDS011;4772;52.382;9.752;2023-05-16T05:54:52;13.53;;;3.10;;
9467;SDS011;4772;52.382;9.752;2023-05-16T05:57:18;11.70;;;2.30;;
9467;SDS011;4772;52.382;9.752;2023-05-16T05:59:45;14.53;;;3.17;;
9467;SDS011;4772;52.382;9.752;2023-05-16T06:02:11;13.20;;;3.33;;
9467;SDS011;4772;52.382;9.752;2023-05-16T06:04:37;11.07;;;2.77;;
9467;SDS011;4772;52.382;9.752;2023-05-16T06:07:03;11.37;;;2.77;;
9467;SDS011;4772;52.382;9.752;2023-05-16T06:09:29;10.50;;;2.90;;
9467;SDS011;4772;52.382;9.752;2023-05-16T06:11:55;11.97;;;2.90;;
9467;SDS011;4772;52.382;9.752;2023-05-16T06:14:21;13.23;;;3.03;;
9467;SDS011;4772;52.382;9.752;2023-05-16T06:16:47;13.87;;;3.03;;
9467;SDS011;4772;52.382;9.752;2023-05-16T06:19:13;14.60;;;3.07;;
9467;SDS011;4772;52.382;9.752;2023-05-16T06:21:40;12.53;;;3.10;;
9467;SDS011;4772;52.382;9.752;2023-05-16T06:24:07;18.83;;;3.13;;
9467;SDS011;4772;52.382;9.752;2023-05-16T06:26:33;11.97;;;3.00;;
9467;SDS011;4772;52.382;9.752;2023-05-16T06:28:59;13.30;;;2.90;;
9467;SDS011;4772;52.382;9.752;2023-05-16T06:31:25;9.83;;;2.80;;
9467;SDS011;4772;52.382;9.752;2023-05-16T06:33:51;15.57;;;3.30;;
9467;SDS011;4772;52.382;9.752;2023-05-16T06:36:17;11.67;;;2.83;;
9467;SDS011;4772;52.382;9.752;2023-05-16T06:38:43;12.37;;;2.90;;
9467;SDS011;4772;52.382;9.752;2023-05-16T06:41:09;12.73;;;2.80;;
9467;SDS011;4772;52.382;9.752;2023-05-16T06:43:35;14.70;;;2.83;;
9467;SDS011;4772;52.382;9.752;2023-05-16T06:46:01;11.57;;;2.57;;
9467;SDS011;4772;52.382;9.752;2023-05-16T06:48:28;11.97;;;2.40;;
9467;SDS011;4772;52.382;9.752;2023-05-16T06:50:54;10.20;;;2.53;;
9467;SDS011;4772;52.382;9.752;2023-05-16T06:53:20;11.07;;;2.50;;
9467;SDS011;4772;52.382;9.752;2023-05-16T06:55:46;13.80;;;2.83;;
9467;SDS011;4772;52.382;9.752;2023-05-16T06:58:12;12.73;;;2.57;;
9467;SDS011;4772;52.382;9.752;2023-05-16T07:00:38;11.60;;;2.23;;
9467;SDS011;4772;52.382;9.752;2023-05-16T07:03:04;9.33;;;2.67;;
9467;SDS011;4772;52.382;9.752;2023-05-16T07:05:30;9.93;;;2.43;;
9467;SDS011;4772;52.382;9.752;2023-05-16T07:07:56;11.47;;;2.43;;
9467;SDS011;4772;52.382;9.752;2023-05-16T07:10:22;9.90;;;2.40;;
9467;SDS011;4772;52.382;9.752;2023-05-16T07:12:48;7.33;;;2.23;;
9467;SDS011;4772;52.382;9.752;2023-05-16T07:15:15;6.87;;;2.50;;
9467;SDS011;4772;52.382;9.752;2023-05-16T07:17:40;7.63;;;2.03;;
9467;SDS011;4772;52.382;9.752;2023-05-16T07:20:07;11.00;;;2.37;;
9467;SDS011;4772;52.382;9.752;2023-05-16T07:22:37;5.93;;;2.10;;
9467;SDS011;4772;52.382;9.752;2023-05-16T07:25:03;11.37;;;2.23;;
9467;SDS011;4772;52.382;9.752;2023-05-16T07:27:29;8.97;;;2.67;;
9467;SDS011;4772;52.382;9.752;2023-05-16T07:29:56;10.03;;;2.27;;
9467;SDS011;4772;52.382;9.752;2023-05-16T07:32:22;8.10;;;1.87;;
9467;SDS011;4772;52.382;9.752;2023-05-16T07:34:48;8.87;;;2.03;;
9467;SDS011;4772;52.382;9.752;2023-05-16T07:37:14;7.47;;;2.30;;
9467;SDS011;4772;52.382;9.752;2023-05-16T07:39:40;5.97;;;2.00;;
9467;SDS011;4772;52.382;9.752;2023-05-16T07:42:07;7.30;;;2.03;;
9467;SDS011;4772;52.382;9.752;2023-05-16T07:44:33;9.40;;;2.27;;
9467;SDS011;4772;52.382;9.752;2023-05-16T07:46:59;7.30;;;2.20;;
9467;SDS011;4772;52.382;9.752;2023-05-16T07:49:25;8.17;;;2.37;;
9467;SDS011;4772;52.382;9.752;2023-05-16T07:51:51;11.23;;;3.73;;
9467;SDS011;4772;52.382;9.752;2023-05-16T07:54:17;7.10;;;2.30;;
9467;SDS011;4772;52.382;9.752;2023-05-16T07:56:43;6.23;;;2.10;;
9467;SDS011;4772;52.382;9.752;2023-05-16T07:59:09;7.07;;;2.23;;
9467;SDS011;4772;52.382;9.752;2023-05-16T08:01:35;9.57;;;2.43;;
9467;SDS011;4772;52.382;9.752;2023-05-16T08:04:02;8.67;;;2.53;;
9467;SDS011;4772;52.382;9.752;2023-05-16T08:06:28;8.27;;;2.03;;
9467;SDS011;4772;52.382;9.752;2023-05-16T08:08:55;7.47;;;2.20;;
9467;SDS011;4772;52.382;9.752;2023-05-16T08:11:21;7.30;;;2.00;;
9467;SDS011;4772;52.382;9.752;2023-05-16T08:13:47;6.37;;;2.10;;
9467;SDS011;4772;52.382;9.752;2023-05-16T08:16:13;10.13;;;2.33;;
9467;SDS011;4772;52.382;9.752;2023-05-16T08:18:39;11.03;;;2.93;;
9467;SDS011;4772;52.382;9.752;2023-05-16T08:21:06;9.00;;;2.77;;
9467;SDS011;4772;52.382;9.752;2023-05-16T08:23:33;6.10;;;1.80;;
9467;SDS011;4772;52.382;9.752;2023-05-16T08:26:00;8.03;;;2.23;;
9467;SDS011;4772;52.382;9.752;2023-05-16T08:28:26;8.83;;;1.93;;
9467;SDS011;4772;52.382;9.752;2023-05-16T08:30:52;3.97;;;1.50;;
9467;SDS011;4772;52.382;9.752;2023-05-16T08:33:18;7.78;;;1.83;;
9467;SDS011;4772;52.382;9.752;2023-05-16T08:35:44;7.50;;;1.85;;
9467;SDS011;4772;52.382;9.752;2023-05-16T08:38:13;8.43;;;1.90;;
9467;SDS011;4772;52.382;9.752;2023-05-16T08:40:39;6.03;;;2.20;;
9467;SDS011;4772;52.382;9.752;2023-05-16T08:43:05;6.60;;;1.80;;
9467;SDS011;4772;52.382;9.752;2023-05-16T08:45:31;8.70;;;2.07;;
9467;SDS011;4772;52.382;9.752;2023-05-16T08:47:59;6.97;;;1.93;;
9467;SDS011;4772;52.382;9.752;2023-05-16T08:50:26;8.37;;;2.33;;
9467;SDS011;4772;52.382;9.752;2023-05-16T08:52:55;8.57;;;2.30;;
9467;SDS011;4772;52.382;9.752;2023-05-16T08:55:22;8.33;;;1.93;;
9467;SDS011;4772;52.382;9.752;2023-05-16T08:57:49;4.80;;;2.13;;
9467;SDS011;4772;52.382;9.752;2023-05-16T09:00:16;5.38;;;2.17;;
9467;SDS011;4772;52.382;9.752;2023-05-16T09:02:43;5.65;;;1.73;;
9467;SDS011;4772;52.382;9.752;2023-05-16T09:05:10;6.30;;;1.80;;
9467;SDS011;4772;52.382;9.752;2023-05-16T09:07:37;5.50;;;1.90;;
9467;SDS011;4772;52.382;9.752;2023-05-16T09:10:03;4.68;;;1.98;;
9467;SDS011;4772;52.382;9.752;2023-05-16T09:12:30;5.72;;;1.90;;
9467;SDS011;4772;52.382;9.752;2023-05-16T09:14:56;4.77;;;1.97;;
9467;SDS011;4772;52.382;9.752;2023-05-16T09:17:22;4.60;;;1.67;;
9467;SDS011;4772;52.382;9.752;2023-05-16T09:19:48;49.27;;;4.83;;
9467;SDS011;4772;52.382;9.752;2023-05-16T09:22:17;11.63;;;2.17;;
9467;SDS011;4772;52.382;9.752;2023-05-16T09:24:43;11.53;;;2.40;;
9467;SDS011;4772;52.382;9.752;2023-05-16T09:29:35;11.87;;;2.10;;
9467;SDS011;4772;52.382;9.752;2023-05-16T09:32:08;6.25;;;2.15;;
9467;SDS011;4772;52.382;9.752;2023-05-16T09:34:38;4.85;;;1.60;;
9467;SDS011;4772;52.382;9.752;2023-05-16T09:37:04;3.35;;;1.58;;
9467;SDS011;4772;52.382;9.752;2023-05-16T09:39:31;7.47;;;1.88;;
9467;SDS011;4772;52.382;9.752;2023-05-16T09:41:57;6.20;;;1.83;;
9467;SDS011;4772;52.382;9.752;2023-05-16T09:44:23;4.87;;;1.90;;
9467;SDS011;4772;52.382;9.752;2023-05-16T09:46:52;5.67;;;2.23;;
9467;SDS011;4772;52.382;9.752;2023-05-16T09:49:18;3.97;;;1.33;;
9467;SDS011;4772;52.382;9.752;2023-05-16T09:51:44;5.20;;;1.73;;
9467;SDS011;4772;52.382;9.752;2023-05-16T09:54:10;6.67;;;1.77;;
9467;SDS011;4772;52.382;9.752;2023-05-16T09:56:49;4.00;;;1.35;;
9467;SDS011;4772;52.382;9.752;2023-05-16T09:59:15;10.75;;;2.15;;
9467;SDS011;4772;52.382;9.752;2023-05-16T10:01:41;4.70;;;2.00;;
9467;SDS011;4772;52.382;9.752;2023-05-16T10:04:08;4.88;;;1.80;;
9467;SDS011;4772;52.382;9.752;2023-05-16T10:06:38;8.20;;;2.22;;
9467;SDS011;4772;52.382;9.752;2023-05-16T10:09:04;5.22;;;1.95;;
9467;SDS011;4772;52.382;9.752;2023-05-16T10:11:31;5.50;;;1.70;;
9467;SDS011;4772;52.382;9.752;2023-05-16T10:13:58;5.78;;;1.98;;
9467;SDS011;4772;52.382;9.752;2023-05-16T10:16:24;5.38;;;1.80;;
9467;SDS011;4772;52.382;9.752;2023-05-16T10:18:50;5.75;;;1.77;;
9467;SDS011;4772;52.382;9.752;2023-05-16T10:21:17;6.97;;;1.48;;
9467;SDS011;4772;52.382;9.752;2023-05-16T10:23:46;9.97;;;1.70;;
9467;SDS011;4772;52.382;9.752;2023-05-16T10:26:13;5.00;;;1.77;;
9467;SDS011;4772;52.382;9.752;2023-05-16T10:28:40;6.43;;;1.63;;
9467;SDS011;4772;52.382;9.752;2023-05-16T10:31:07;4.80;;;1.40;;
9467;SDS011;4772;52.382;9.752;2023-05-16T10:33:33;6.30;;;1.90;;
9467;SDS011;4772;52.382;9.752;2023-05-16T10:36:00;4.45;;;1.80;;
9467;SDS011;4772;52.382;9.752;2023-05-16T10:38:27;4.05;;;1.58;;
9467;SDS011;4772;52.382;9.752;2023-05-16T10:40:53;4.25;;;1.35;;
9467;SDS011;4772;52.382;9.752;2023-05-16T10:43:24;3.55;;;1.58;;
9467;SDS011;4772;52.382;9.752;2023-05-16T10:46:04;5.47;;;1.50;;
9467;SDS011;4772;52.382;9.752;2023-05-16T10:48:31;8.27;;;1.83;;
9467;SDS011;4772;52.382;9.752;2023-05-16T10:50:57;3.63;;;1.35;;
9467;SDS011;4772;52.382;9.752;2023-05-16T10:53:33;4.78;;;1.80;;
9467;SDS011;4772;52.382;9.752;2023-05-16T11:06:31;4.30;;;1.55;;
9467;SDS011;4772;52.382;9.752;2023-05-16T11:15:00;4.55;;;1.60;;
9467;SDS011;4772;52.382;9.752;2023-05-16T11:19:43;2.97;;;1.42;;
9467;SDS011;4772;52.382;9.752;2023-05-16T11:29:49;5.43;;;1.50;;
9467;SDS011;4772;52.382;9.752;2023-05-16T11:32:18;3.60;;;1.60;;
9467;SDS011;4772;52.382;9.752;2023-05-16T11:34:45;4.60;;;1.55;;
9467;SDS011;4772;52.382;9.752;2023-05-16T11:37:12;4.72;;;1.90;;
9467;SDS011;4772;52.382;9.752;2023-05-16T11:39:39;4.78;;;1.70;;
9467;SDS011;4772;52.382;9.752;2023-05-16T11:42:05;7.05;;;3.67;;
9467;SDS011;4772;52.382;9.752;2023-05-16T11:44:31;6.35;;;2.58;;
9467;SDS011;4772;52.382;9.752;2023-05-16T11:46:57;4.57;;;1.60;;
9467;SDS011;4772;52.382;9.752;2023-05-16T11:49:26;4.10;;;1.70;;
9467;SDS011;4772;52.382;9.752;2023-05-16T11:51:52;2.63;;;1.52;;
9467;SDS011;4772;52.382;9.752;2023-05-16T11:54:20;4.70;;;2.03;;
9467;SDS011;4772;52.382;9.752;2023-05-16T11:56:46;4.35;;;1.80;;
9467;SDS011;4772;52.382;9.752;2023-05-16T11:59:12;3.10;;;1.60;;
9467;SDS011;4772;52.382;9.752;2023-05-16T12:01:39;5.00;;;1.50;;
9467;SDS011;4772;52.382;9.752;2023-05-16T12:04:06;3.25;;;1.50;;
9467;SDS011;4772;52.382;9.752;2023-05-16T12:06:33;4.28;;;1.42;;
9467;SDS011;4772;52.382;9.752;2023-05-16T12:08:59;7.00;;;1.88;;
9467;SDS011;4772;52.382;9.752;2023-05-16T12:11:35;6.38;;;1.83;;
9467;SDS011;4772;52.382;9.752;2023-05-16T12:14:01;4.63;;;1.52;;
9467;SDS011;4772;52.382;9.752;2023-05-16T12:16:27;4.03;;;1.60;;
9467;SDS011;4772;52.382;9.752;2023-05-16T12:18:54;5.22;;;1.50;;
9467;SDS011;4772;52.382;9.752;2023-05-16T12:21:20;4.93;;;1.83;;
9467;SDS011;4772;52.382;9.752;2023-05-16T12:23:46;5.57;;;1.57;;
9467;SDS011;4772;52.382;9.752;2023-05-16T12:26:12;4.70;;;1.70;;
9467;SDS011;4772;52.382;9.752;2023-05-16T12:28:38;6.15;;;1.85;;
9467;SDS011;4772;52.382;9.752;2023-05-16T12:31:17;4.50;;;1.58;;
9467;SDS011;4772;52.382;9.752;2023-05-16T12:33:44;4.70;;;1.60;;
9467;SDS011;4772;52.382;9.752;2023-05-16T12:36:13;5.93;;;1.90;;
9467;SDS011;4772;52.382;9.752;2023-05-16T12:38:40;4.50;;;1.67;;
9467;SDS011;4772;52.382;9.752;2023-05-16T12:41:06;4.38;;;1.70;;
9467;SDS011;4772;52.382;9.752;2023-05-16T12:43:34;6.95;;;2.40;;
9467;SDS011;4772;52.382;9.752;2023-05-16T12:46:00;6.57;;;2.00;;
9467;SDS011;4772;52.382;9.752;2023-05-16T12:48:32;5.63;;;1.90;;
9467;SDS011;4772;52.382;9.752;2023-05-16T12:51:13;5.33;;;1.87;;
9467;SDS011;4772;52.382;9.752;2023-05-16T12:53:40;9.10;;;2.00;;
9467;SDS011;4772;52.382;9.752;2023-05-16T12:56:06;7.57;;;1.70;;
9467;SDS011;4772;52.382;9.752;2023-05-16T12:58:32;5.43;;;1.73;;
9467;SDS011;4772;52.382;9.752;2023-05-16T13:00:58;4.57;;;1.70;;
9467;SDS011;4772;52.382;9.752;2023-05-16T13:03:24;8.83;;;4.50;;
9467;SDS011;4772;52.382;9.752;2023-05-16T13:05:51;5.97;;;1.60;;
9467;SDS011;4772;52.382;9.752;2023-05-16T13:08:17;4.13;;;1.50;;
9467;SDS011;4772;52.382;9.752;2023-05-16T13:10:43;5.37;;;1.60;;
9467;SDS011;4772;52.382;9.752;2023-05-16T13:13:09;5.47;;;1.67;;
9467;SDS011;4772;52.382;9.752;2023-05-16T13:15:35;3.60;;;1.53;;
9467;SDS011;4772;52.382;9.752;2023-05-16T13:18:02;4.03;;;1.50;;
9467;SDS011;4772;52.382;9.752;2023-05-16T13:20:28;4.30;;;1.73;;
9467;SDS011;4772;52.382;9.752;2023-05-16T13:22:54;4.40;;;1.80;;
9467;SDS011;4772;52.382;9.752;2023-05-16T13:25:20;3.45;;;1.20;;
9467;SDS011;4772;52.382;9.752;2023-05-16T13:27:46;4.47;;;1.40;;
9467;SDS011;4772;52.382;9.752;2023-05-16T13:30:14;2.88;;;1.58;;
9467;SDS011;4772;52.382;9.752;2023-05-16T13:32:40;3.85;;;1.58;;
9467;SDS011;4772;52.382;9.752;2023-05-16T13:35:06;4.60;;;1.23;;
9467;SDS011;4772;52.382;9.752;2023-05-16T13:37:34;2.53;;;1.38;;
9467;SDS011;4772;52.382;9.752;2023-05-16T13:40:00;4.10;;;1.63;;
9467;SDS011;4772;52.382;9.752;2023-05-16T13:42:26;5.10;;;1.38;;
9467;SDS011;4772;52.382;9.752;2023-05-16T13:44:52;4.00;;;1.35;;
9467;SDS011;4772;52.382;9.752;2023-05-16T13:47:18;6.75;;;1.70;;
9467;SDS011;4772;52.382;9.752;2023-05-16T13:49:44;4.20;;;1.60;;
9467;SDS011;4772;52.382;9.752;2023-05-16T13:52:11;3.92;;;1.48;;
9467;SDS011;4772;52.382;9.752;2023-05-16T13:54:37;3.83;;;1.70;;
9467;SDS011;4772;52.382;9.752;2023-05-16T13:57:05;22.23;;;3.03;;
9467;SDS011;4772;52.382;9.752;2023-05-16T13:59:31;3.38;;;1.30;;
9467;SDS011;4772;52.382;9.752;2023-05-16T14:01:57;2.53;;;1.15;;
9467;SDS011;4772;52.382;9.752;2023-05-16T14:04:23;3.22;;;1.42;;
9467;SDS011;4772;52.382;9.752;2023-05-16T14:06:50;2.75;;;1.42;;
9467;SDS011;4772;52.382;9.752;2023-05-16T14:09:16;4.77;;;1.50;;
9467;SDS011;4772;52.382;9.752;2023-05-16T14:11:42;6.03;;;1.60;;
9467;SDS011;4772;52.382;9.752;2023-05-16T14:14:08;3.83;;;1.40;;
9467;SDS011;4772;52.382;9.752;2023-05-16T14:16:34;3.23;;;1.27;;
9467;SDS011;4772;52.382;9.752;2023-05-16T14:19:01;4.37;;;1.40;;
9467;SDS011;4772;52.382;9.752;2023-05-16T14:21:27;4.17;;;1.37;;
9467;SDS011;4772;52.382;9.752;2023-05-16T14:23:53;8.23;;;1.40;;
9467;SDS011;4772;52.382;9.752;2023-05-16T14:26:19;3.90;;;1.40;;
9467;SDS011;4772;52.382;9.752;2023-05-16T14:28:49;7.73;;;1.57;;
9467;SDS011;4772;52.382;9.752;2023-05-16T14:31:15;4.97;;;1.23;;
9467;SDS011;4772;52.382;9.752;2023-05-16T14:33:41;6.63;;;2.20;;
9467;SDS011;4772;52.382;9.752;2023-05-16T14:36:08;3.10;;;1.20;;
9467;SDS011;4772;52.382;9.752;2023-05-16T14:38:34;3.47;;;1.27;;
9467;SDS011;4772;52.382;9.752;2023-05-16T14:41:00;4.23;;;1.37;;
9467;SDS011;4772;52.382;9.752;2023-05-16T14:43:26;3.47;;;1.10;;
9467;SDS011;4772;52.382;9.752;2023-05-16T14:45:52;3.17;;;1.30;;
9467;SDS011;4772;52.382;9.752;2023-05-16T14:48:18;2.30;;;1.17;;
9467;SDS011;4772;52.382;9.752;2023-05-16T14:50:44;2.77;;;1.20;;
9467;SDS011;4772;52.382;9.752;2023-05-16T14:53:10;2.80;;;1.23;;
9467;SDS011;4772;52.382;9.752;2023-05-16T14:55:36;5.57;;;1.10;;
9467;SDS011;4772;52.382;9.752;2023-05-16T14:58:02;4.37;;;1.20;;
9467;SDS011;4772;52.382;9.752;2023-05-16T15:00:28;1.93;;;1.10;;
9467;SDS011;4772;52.382;9.752;2023-05-16T15:02:55;3.20;;;1.20;;
9467;SDS011;4772;52.382;9.752;2023-05-16T15:05:21;2.87;;;1.27;;
9467;SDS011;4772;52.382;9.752;2023-05-16T15:07:49;4.07;;;1.43;;
9467;SDS011;4772;52.382;9.752;2023-05-16T15:10:15;5.40;;;1.57;;
9467;SDS011;4772;52.382;9.752;2023-05-16T15:12:41;6.53;;;1.90;;
9467;SDS011;4772;52.382;9.752;2023-05-16T15:15:10;3.03;;;1.30;;
9467;SDS011;4772;52.382;9.752;2023-05-16T15:17:37;2.67;;;1.20;;
9467;SDS011;4772;52.382;9.752;2023-05-16T15:20:06;3.43;;;1.47;;
9467;SDS011;4772;52.382;9.752;2023-05-16T15:22:33;5.33;;;1.30;;
9467;SDS011;4772;52.382;9.752;2023-05-16T15:24:59;3.93;;;1.37;;
9467;SDS011;4772;52.382;9.752;2023-05-16T15:27:26;3.47;;;1.20;;
9467;SDS011;4772;52.382;9.752;2023-05-16T15:29:52;3.00;;;1.20;;
9467;SDS011;4772;52.382;9.752;2023-05-16T15:32:18;5.90;;;1.43;;
9467;SDS011;4772;52.382;9.752;2023-05-16T15:34:45;2.57;;;1.20;;
9467;SDS011;4772;52.382;9.752;2023-05-16T15:37:11;3.17;;;1.60;;
9467;SDS011;4772;52.382;9.752;2023-05-16T15:39:37;4.07;;;1.33;;
9467;SDS011;4772;52.382;9.752;2023-05-16T15:42:03;2.37;;;1.23;;
9467;SDS011;4772;52.382;9.752;2023-05-16T15:44:30;3.87;;;1.40;;